Time;durP1;ratioP1;P1;durP2;ratioP2;P2;SDS_P1;SDS_P2;PMS_P1;PMS_P2;Temp;Humidity;BMP_temperature;BMP_pressure;BME280_temperature;BME280_humidity;BME280_pressure;Samples;Min_cycle;Max_cycle;Signal;HPM_P1;HPM_P2
2022/10/14 00:02:19;;;;;;;;;;;333.00;2329.60;;;;;;5092732;28;19912;-63
2022/10/14 00:04:44;;;;;;;;;;;333.00;2329.60;;;;;;5092179;28;19976;-64
2022/10/14 00:07:10;;;;;;;;;;;333.00;2329.60;;;;;;5092685;28;19995;-62
2022/10/14 00:09:36;;;;;;;;;;;332.90;2329.60;;;;;;5091484;28;20400;-63
2022/10/14 00:12:01;;;;;;;;;;;332.90;2329.60;;;;;;5092743;28;19915;-63
2022/10/14 00:14:27;;;;;;;;;;;308.10;2304.00;;;;;;5092489;28;19961;-63
2022/10/14 00:16:54;;;;;;;;;;;332.90;2329.60;;;;;;5092789;28;19915;-64
2022/10/14 00:19:19;;;;;;;;;;;332.90;2329.60;;;;;;5092653;28;19962;-63
2022/10/14 00:21:45;;;;;;;;;;;332.80;2329.60;;;;;;5092320;28;19919;-63
2022/10/14 00:24:12;;;;;;;;;;;332.90;2329.60;;;;;;5092715;28;19908;-62
2022/10/14 00:26:38;;;;;;;;;;;332.80;2329.60;;;;;;5092584;28;19958;-62
2022/10/14 00:29:05;;;;;;;;;;;332.90;2329.60;;;;;;5092225;28;19939;-63
2022/10/14 00:31:31;;;;;;;;;;;332.80;2329.60;;;;;;5092290;28;20357;-63
2022/10/14 00:33:56;;;;;;;;;;;332.80;2329.60;;;;;;5091911;28;20015;-63
2022/10/14 00:36:23;;;;;;;;;;;332.80;2329.60;;;;;;5092260;28;20003;-63
2022/10/14 00:38:49;;;;;;;;;;;332.80;2329.60;;;;;;5092202;28;20346;-62
2022/10/14 00:41:25;;;;;;;;;;;332.80;2329.60;;;;;;5091894;28;19916;-64
2022/10/14 00:43:53;;;;;;;;;;;308.10;2304.00;;;;;;5092103;28;19912;-63
2022/10/14 00:46:19;;;;;;;;;;;308.10;2304.00;;;;;;5092142;28;19914;-63
2022/10/14 00:48:44;;;;;;;;;;;308.10;2304.00;;;;;;5091944;28;19927;-63
2022/10/14 00:51:10;;;;;;;;;;;308.00;2304.00;;;;;;5092017;28;20407;-63
2022/10/14 00:53:37;;;;;;;;;;;308.00;2304.00;;;;;;5091787;28;19908;-63
2022/10/14 00:56:04;;;;;;;;;;;308.00;2304.00;;;;;;5091750;28;20243;-63
2022/10/14 00:58:29;;;;;;;;;;;308.00;2304.00;;;;;;5092130;28;19908;-63
2022/10/14 01:00:55;;;;;;;;;;;308.00;2304.00;;;;;;5091576;28;19920;-63
2022/10/14 01:03:22;;;;;;;;;;;307.90;2304.00;;;;;;5091735;28;19919;-63
2022/10/14 01:05:50;;;;;;;;;;;307.90;2304.00;;;;;;5091426;28;19912;-63
2022/10/14 01:08:26;;;;;;;;;;;307.90;2304.00;;;;;;5091453;28;20010;-64
2022/10/14 01:11:01;;;;;;;;;;;307.90;2304.00;;;;;;5091669;28;19915;-63
2022/10/14 01:13:39;;;;;;;;;;;307.90;2304.00;;;;;;5091364;28;19934;-64
2022/10/14 01:16:43;;;;;;;;;;;307.90;2304.00;;;;;;5091418;28;20354;-64
2022/10/14 01:19:27;;;;;;;;;;;307.90;2304.00;;;;;;5068930;28;20232;-64
2022/10/14 01:21:59;;;;;;;;;;;307.90;2304.00;;;;;;5068459;28;19924;-63
2022/10/14 01:24:41;;;;;;;;;;;307.80;2304.00;;;;;;5068661;28;19913;-64
2022/10/14 01:27:07;;;;;;;;;;;307.80;2304.00;;;;;;5068921;28;19943;-63
2022/10/14 01:29:56;;;;;;;;;;;307.80;2304.00;;;;;;5068618;28;19965;-63
2022/10/14 01:32:24;;;;;;;;;;;307.70;2304.00;;;;;;5068661;28;19908;-63
2022/10/14 01:35:03;;;;;;;;;;;307.70;2304.00;;;;;;5068571;28;19916;-63
2022/10/14 01:37:29;;;;;;;;;;;307.70;2304.00;;;;;;5068813;28;19969;-63
2022/10/14 01:39:57;;;;;;;;;;;307.70;2304.00;;;;;;5068442;28;20014;-63
2022/10/14 01:42:26;;;;;;;;;;;307.60;2304.00;;;;;;5068449;28;20386;-63
2022/10/14 01:45:06;;;;;;;;;;;307.50;2304.00;;;;;;5068319;28;19939;-63
2022/10/14 01:47:32;;;;;;;;;;;307.60;2304.00;;;;;;5068698;28;19908;-62
2022/10/14 01:50:01;;;;;;;;;;;307.60;2304.00;;;;;;5080330;28;19917;-63
2022/10/14 01:52:30;;;;;;;;;;;307.60;2304.00;;;;;;5090850;28;19912;-63
2022/10/14 01:54:57;;;;;;;;;;;307.60;2304.00;;;;;;5090608;28;19912;-63
2022/10/14 01:57:24;;;;;;;;;;;307.60;2304.00;;;;;;5090646;28;19939;-64
2022/10/14 01:59:51;;;;;;;;;;;307.60;2304.00;;;;;;5090876;28;19961;-64
2022/10/14 02:02:17;;;;;;;;;;;307.60;2304.00;;;;;;5090712;28;19923;-63
2022/10/14 02:04:43;;;;;;;;;;;307.60;2304.00;;;;;;5090390;28;19908;-64
2022/10/14 02:07:11;;;;;;;;;;;307.60;2304.00;;;;;;5090689;28;20289;-63
2022/10/14 02:09:41;;;;;;;;;;;307.50;2304.00;;;;;;5090580;28;19971;-63
2022/10/14 02:12:10;;;;;;;;;;;307.40;2304.00;;;;;;5090907;28;19908;-62
2022/10/14 02:14:35;;;;;;;;;;;307.30;2304.00;;;;;;5090396;28;19912;-62
2022/10/14 02:17:11;;;;;;;;;;;307.40;2304.00;;;;;;5090615;28;19908;-63
2022/10/14 02:19:36;;;;;;;;;;;307.40;2304.00;;;;;;5090372;28;19961;-63
2022/10/14 02:22:05;;;;;;;;;;;307.40;2304.00;;;;;;5090184;28;19924;-63
2022/10/14 02:24:36;;;;;;;;;;;307.40;2304.00;;;;;;5090508;28;19988;-63
2022/10/14 02:27:04;;;;;;;;;;;307.30;2304.00;;;;;;5090494;28;19963;-63
2022/10/14 02:29:30;;;;;;;;;;;307.30;2304.00;;;;;;5090642;28;20259;-63
2022/10/14 02:31:56;;;;;;;;;;;307.30;2304.00;;;;;;5092431;28;19919;-63
2022/10/14 02:34:24;;;;;;;;;;;307.40;2304.00;;;;;;5094453;28;19912;-63
2022/10/14 02:36:51;;;;;;;;;;;307.40;2304.00;;;;;;5094400;28;19913;-63
2022/10/14 02:39:23;;;;;;;;;;;307.40;2304.00;;;;;;5094505;28;19908;-63
2022/10/14 02:41:49;;;;;;;;;;;307.30;2304.00;;;;;;5094432;28;19924;-63
2022/10/14 02:44:14;;;;;;;;;;;307.30;2304.00;;;;;;5094188;28;20015;-63
2022/10/14 02:46:41;;;;;;;;;;;307.30;2304.00;;;;;;5094618;28;19956;-63
2022/10/14 02:49:07;;;;;;;;;;;307.30;2304.00;;;;;;5094397;28;19934;-63
2022/10/14 02:51:32;;;;;;;;;;;307.30;2304.00;;;;;;5094101;28;19912;-63
2022/10/14 02:54:00;;;;;;;;;;;307.30;2304.00;;;;;;5094189;28;19954;-63
2022/10/14 02:56:26;;;;;;;;;;;282.50;2278.40;;;;;;5094081;28;19912;-63
2022/10/14 02:58:51;;;;;;;;;;;282.50;2278.40;;;;;;5094175;28;19964;-62
2022/10/14 03:01:17;;;;;;;;;;;282.50;2278.40;;;;;;5094112;28;19923;-63
2022/10/14 03:03:42;;;;;;;;;;;282.50;2278.40;;;;;;5093754;28;19913;-63
2022/10/14 03:06:08;;;;;;;;;;;282.40;2278.40;;;;;;5093969;28;19919;-63
2022/10/14 03:08:33;;;;;;;;;;;282.50;2278.40;;;;;;5093752;28;19959;-63
2022/10/14 03:10:59;;;;;;;;;;;282.40;2278.40;;;;;;5094052;28;19991;-63
2022/10/14 03:13:24;;;;;;;;;;;282.40;2278.40;;;;;;5093746;28;20377;-63
2022/10/14 03:15:50;;;;;;;;;;;282.40;2278.40;;;;;;5094008;28;20353;-63
2022/10/14 03:18:16;;;;;;;;;;;282.40;2278.40;;;;;;5093662;28;20239;-63
2022/10/14 03:20:43;;;;;;;;;;;282.50;2278.40;;;;;;5093465;28;19938;-63
2022/10/14 03:23:09;;;;;;;;;;;282.50;2278.40;;;;;;5093734;28;19914;-63
2022/10/14 03:25:34;;;;;;;;;;;282.50;2278.40;;;;;;5093636;28;19908;-63
2022/10/14 03:28:00;;;;;;;;;;;282.40;2278.40;;;;;;5093624;28;20285;-63
2022/10/14 03:30:25;;;;;;;;;;;282.30;2278.40;;;;;;5093387;28;19908;-62
2022/10/14 03:32:51;;;;;;;;;;;282.30;2278.40;;;;;;5093417;28;20294;-63
2022/10/14 03:35:17;;;;;;;;;;;282.30;2278.40;;;;;;5093353;28;20278;-63
2022/10/14 03:37:42;;;;;;;;;;;282.30;2278.40;;;;;;5093403;28;19916;-64
2022/10/14 03:40:08;;;;;;;;;;;282.30;2278.40;;;;;;5093409;28;19948;-63
2022/10/14 03:42:33;;;;;;;;;;;282.30;2278.40;;;;;;5092470;28;19969;-63
2022/10/14 03:44:59;;;;;;;;;;;282.10;2278.40;;;;;;5093155;28;20320;-63
2022/10/14 03:47:25;;;;;;;;;;;282.20;2278.40;;;;;;5093031;28;20369;-63
2022/10/14 03:49:50;;;;;;;;;;;282.30;2278.40;;;;;;5093229;28;19961;-63
2022/10/14 03:52:16;;;;;;;;;;;282.50;2278.40;;;;;;5092800;28;19915;-63
2022/10/14 03:54:41;;;;;;;;;;;282.50;2278.40;;;;;;5093292;28;20273;-63
2022/10/14 03:57:07;;;;;;;;;;;307.30;2304.00;;;;;;5093150;28;20376;-63
2022/10/14 03:59:32;;;;;;;;;;;282.50;2278.40;;;;;;5092880;28;20330;-63
2022/10/14 04:01:58;;;;;;;;;;;282.50;2278.40;;;;;;5092975;28;20010;-63
2022/10/14 04:04:23;;;;;;;;;;;282.50;2278.40;;;;;;5092619;28;20259;-64
2022/10/14 04:06:49;;;;;;;;;;;282.40;2022.40;;;;;;5092804;28;19919;-63
2022/10/14 04:09:15;;;;;;;;;;;282.30;2278.40;;;;;;5092397;28;19939;-63
2022/10/14 04:11:40;;;;;;;;;;;282.40;2278.40;;;;;;5093170;28;19912;-63
2022/10/14 04:14:06;;;;;;;;;;;282.30;2278.40;;;;;;5092452;28;19908;-63
2022/10/14 04:16:31;;;;;;;;;;;282.30;2278.40;;;;;;5092629;28;19912;-63
2022/10/14 04:18:57;;;;;;;;;;;282.30;2278.40;;;;;;5092646;28;19994;-63
2022/10/14 04:21:23;;;;;;;;;;;282.40;2201.60;;;;;;5092564;28;19916;-64
2022/10/14 04:23:49;;;;;;;;;;;282.40;2278.40;;;;;;5092499;28;19915;-64
2022/10/14 04:26:15;;;;;;;;;;;282.50;2278.40;;;;;;5092217;28;20378;-64
2022/10/14 04:28:41;;;;;;;;;;;282.50;2278.40;;;;;;5092451;28;19960;-63
2022/10/14 04:31:06;;;;;;;;;;;282.50;2278.40;;;;;;5092460;28;19970;-64
2022/10/14 04:33:33;;;;;;;;;;;282.50;2278.40;;;;;;5092165;28;19912;-65
2022/10/14 04:36:00;;;;;;;;;;;307.30;2304.00;;;;;;5092261;28;19912;-64
2022/10/14 04:38:26;;;;;;;;;;;307.30;2304.00;;;;;;5092107;28;19912;-63
2022/10/14 04:40:51;;;;;;;;;;;307.30;2304.00;;;;;;5092143;28;20109;-63
2022/10/14 04:43:17;;;;;;;;;;;307.30;2304.00;;;;;;5092330;28;20320;-64
2022/10/14 04:45:43;;;;;;;;;;;307.30;2304.00;;;;;;5091669;28;19912;-64
2022/10/14 04:48:08;;;;;;;;;;;307.50;2304.00;;;;;;5091577;28;19908;-64
2022/10/14 04:50:34;;;;;;;;;;;307.30;2304.00;;;;;;5091414;28;19908;-63
2022/10/14 04:52:59;;;;;;;;;;;307.30;2304.00;;;;;;5091871;28;19912;-63
2022/10/14 04:55:25;;;;;;;;;;;307.30;2304.00;;;;;;5091437;28;20003;-64
2022/10/14 04:57:50;;;;;;;;;;;307.30;2304.00;;;;;;5091385;28;20380;-63
2022/10/14 05:00:16;;;;;;;;;;;307.30;2304.00;;;;;;5091302;28;19916;-63
2022/10/14 05:02:42;;;;;;;;;;;307.30;2304.00;;;;;;5091444;28;19912;-64
2022/10/14 05:05:08;;;;;;;;;;;307.30;2304.00;;;;;;5091625;28;19955;-63
2022/10/14 05:07:33;;;;;;;;;;;307.40;2304.00;;;;;;5090851;28;19908;-62
2022/10/14 05:10:00;;;;;;;;;;;307.30;2304.00;;;;;;5091303;28;19923;-63
2022/10/14 05:12:26;;;;;;;;;;;307.40;2304.00;;;;;;5091731;28;19912;-63
2022/10/14 05:14:52;;;;;;;;;;;307.50;2304.00;;;;;;5091541;28;20415;-63
2022/10/14 05:17:17;;;;;;;;;;;307.60;2304.00;;;;;;5091551;28;19908;-64
2022/10/14 05:19:43;;;;;;;;;;;307.70;2304.00;;;;;;5091176;28;19908;-65
2022/10/14 05:22:08;;;;;;;;;;;307.70;2304.00;;;;;;5091215;28;20010;-63
2022/10/14 05:24:34;;;;;;;;;;;307.70;2304.00;;;;;;5090751;28;20054;-64
2022/10/14 05:27:00;;;;;;;;;;;307.80;2304.00;;;;;;5091277;28;19973;-64
2022/10/14 05:29:25;;;;;;;;;;;307.90;2304.00;;;;;;5091328;28;20336;-63
2022/10/14 05:31:51;;;;;;;;;;;308.00;2304.00;;;;;;5091498;28;20375;-63
2022/10/14 05:34:16;;;;;;;;;;;333.20;2329.60;;;;;;5091018;28;19908;-63
2022/10/14 05:36:42;;;;;;;;;;;332.80;2329.60;;;;;;5091017;28;19916;-64
2022/10/14 05:39:08;;;;;;;;;;;332.90;2329.60;;;;;;5091255;28;19931;-63
2022/10/14 05:41:34;;;;;;;;;;;333.00;2329.60;;;;;;5090746;28;20361;-63
2022/10/14 05:43:59;;;;;;;;;;;333.00;2329.60;;;;;;5091068;28;19908;-63
2022/10/14 05:46:25;;;;;;;;;;;333.20;2329.60;;;;;;5091038;28;19912;-64
2022/10/14 05:48:50;;;;;;;;;;;333.40;2329.60;;;;;;5091087;28;19916;-61
2022/10/14 05:51:19;;;;;;;;;;;333.40;2329.60;;;;;;5090723;28;19916;-63
2022/10/14 05:53:46;;;;;;;;;;;333.70;2329.60;;;;;;5090816;28;19919;-64
2022/10/14 05:56:11;;;;;;;;;;;358.60;2329.60;;;;;;5090878;28;19908;-63
2022/10/14 05:58:37;;;;;;;;;;;358.90;2329.60;;;;;;5091066;28;20235;-63
2022/10/14 06:01:04;;;;;;;;;;;359.30;2329.60;;;;;;5090434;28;19927;-62
2022/10/14 06:03:30;;;;;;;;;;;384.20;2329.60;;;;;;5090723;28;19908;-61
2022/10/14 06:05:55;;;;;;;;;;;384.40;2329.60;;;;;;5090035;28;19921;-59
2022/10/14 06:08:21;;;;;;;;;;;384.30;2329.60;;;;;;5090636;28;20006;-61
2022/10/14 06:10:47;;;;;;;;;;;384.40;2329.60;;;;;;5090754;28;19961;-62
2022/10/14 06:13:13;;;;;;;;;;;384.60;2329.60;;;;;;5090615;28;19909;-62
2022/10/14 06:15:38;;;;;;;;;;;384.60;2329.60;;;;;;5090927;28;19915;-63
2022/10/14 06:18:04;;;;;;;;;;;384.80;2329.60;;;;;;5090491;28;19908;-61
2022/10/14 06:20:30;;;;;;;;;;;409.60;2355.20;;;;;;5090456;28;19912;-63
2022/10/14 06:22:57;;;;;;;;;;;409.90;2355.20;;;;;;5090454;28;19954;-61
2022/10/14 06:25:23;;;;;;;;;;;409.90;2355.20;;;;;;5090301;28;19912;-61
2022/10/14 06:27:48;;;;;;;;;;;410.00;2355.20;;;;;;5090424;28;19915;-62
2022/10/14 06:30:14;;;;;;;;;;;410.00;2355.20;;;;;;5090495;28;19915;-61
2022/10/14 06:32:39;;;;;;;;;;;410.00;2355.20;;;;;;5090582;28;19908;-62
2022/10/14 06:35:05;;;;;;;;;;;410.30;2355.20;;;;;;5090243;28;19920;-62
2022/10/14 06:37:31;;;;;;;;;;;435.30;2355.20;;;;;;5090488;28;19908;-63
2022/10/14 06:39:56;;;;;;;;;;;435.40;2355.20;;;;;;5090319;28;19908;-62
2022/10/14 06:42:22;;;;;;;;;;;435.70;2355.20;;;;;;5090317;28;20289;-62
2022/10/14 06:44:47;;;;;;;;;;;435.90;2355.20;;;;;;5090713;28;20002;-62
2022/10/14 06:47:13;;;;;;;;;;;435.50;2355.20;;;;;;5090348;28;20331;-62
2022/10/14 06:49:38;;;;;;;;;;;435.30;2355.20;;;;;;5090529;28;19912;-61
2022/10/14 06:52:04;;;;;;;;;;;410.50;2355.20;;;;;;5090105;28;19915;-62
2022/10/14 06:54:30;;;;;;;;;;;435.50;2355.20;;;;;;5090333;28;19931;-63
2022/10/14 06:56:55;;;;;;;;;;;435.20;2355.20;;;;;;5090099;28;19934;-62
2022/10/14 06:59:21;;;;;;;;;;;410.30;2355.20;;;;;;5090228;28;20002;-61
2022/10/14 07:01:46;;;;;;;;;;;410.40;2355.20;;;;;;5090141;28;19916;-63
2022/10/14 07:04:12;;;;;;;;;;;410.30;2355.20;;;;;;5089996;28;20373;-62
2022/10/14 07:06:38;;;;;;;;;;;410.20;2355.20;;;;;;5090282;28;19916;-62
2022/10/14 07:09:04;;;;;;;;;;;410.20;2355.20;;;;;;5089797;28;19962;-63
2022/10/14 07:11:29;;;;;;;;;;;410.20;2355.20;;;;;;5090128;28;19951;-62
2022/10/14 07:13:55;;;;;;;;;;;410.20;2355.20;;;;;;5089571;28;19950;-63
2022/10/14 07:16:21;;;;;;;;;;;410.30;2355.20;;;;;;5090018;28;19908;-62
2022/10/14 07:18:47;;;;;;;;;;;435.20;2355.20;;;;;;5091781;28;19908;-62
2022/10/14 07:21:12;;;;;;;;;;;435.40;2355.20;;;;;;5093691;28;19924;-63
2022/10/14 07:23:38;;;;;;;;;;;435.60;2355.20;;;;;;5093713;28;20053;-63
2022/10/14 07:26:04;;;;;;;;;;;436.10;2355.20;;;;;;5093558;28;19909;-62
2022/10/14 07:28:29;;;;;;;;;;;460.80;2380.80;;;;;;5093567;28;19908;-62
2022/10/14 07:31:15;;;;;;;;;;;461.60;2380.80;;;;;;5093558;28;19923;-62
2022/10/14 07:33:41;;;;;;;;;;;512.10;2380.80;;;;;;5093340;28;20428;-62
2022/10/14 07:36:10;;;;;;;;;;;537.80;2406.40;;;;;;5093507;28;19965;-63
2022/10/14 07:38:36;;;;;;;;;;;512.90;2380.80;;;;;;5093323;28;19919;-62
2022/10/14 07:41:04;;;;;;;;;;;512.30;2380.80;;;;;;5093303;28;19916;-62
2022/10/14 07:43:30;;;;;;;;;;;512.40;2380.80;;;;;;5093747;28;19995;-62
2022/10/14 07:45:59;;;;;;;;;;;538.30;2406.40;;;;;;5093092;28;19912;-63
2022/10/14 07:48:25;;;;;;;;;;;563.50;2380.80;;;;;;5093266;28;19915;-62
2022/10/14 07:50:51;;;;;;;;;;;538.40;2406.40;;;;;;5093144;28;19908;-63
2022/10/14 07:53:18;;;;;;;;;;;563.70;2355.20;;;;;;5092994;28;19908;-64
2022/10/14 07:55:50;;;;;;;;;;;564.10;2304.00;;;;;;5093072;28;19908;-63
2022/10/14 07:58:23;;;;;;;;;;;589.50;2201.60;;;;;;5091144;28;19916;-62
2022/10/14 08:00:49;;;;;;;;;;;615.10;2073.60;;;;;;5092622;28;19919;-62
2022/10/14 08:03:15;;;;;;;;;;;665.60;1920.00;;;;;;5092029;28;19920;-63
2022/10/14 08:05:41;;;;;;;;;;;614.80;1996.80;;;;;;5093119;28;19912;-62
2022/10/14 08:08:07;;;;;;;;;;;563.90;2201.60;;;;;;5092530;28;19916;-62
2022/10/14 08:10:32;;;;;;;;;;;563.70;2278.40;;;;;;5092097;28;20006;-63
2022/10/14 08:12:58;;;;;;;;;;;537.70;2406.40;;;;;;5092127;28;19947;-62
2022/10/14 08:15:27;;;;;;;;;;;512.90;2380.80;;;;;;5092554;28;20273;-62
2022/10/14 08:17:53;;;;;;;;;;;537.90;2406.40;;;;;;5092592;28;19908;-62
2022/10/14 08:20:18;;;;;;;;;;;538.00;2406.40;;;;;;5092757;28;20029;-62
2022/10/14 08:22:44;;;;;;;;;;;512.90;2380.80;;;;;;5092388;28;20376;-64
2022/10/14 08:25:09;;;;;;;;;;;512.80;2380.80;;;;;;5092516;28;19912;-62
2022/10/14 08:27:35;;;;;;;;;;;563.40;2432.00;;;;;;5091813;28;19912;-62
2022/10/14 08:30:01;;;;;;;;;;;563.20;2432.00;;;;;;5092140;28;19908;-62
2022/10/14 08:32:26;;;;;;;;;;;589.10;2355.20;;;;;;5092387;28;19987;-62
2022/10/14 08:34:54;;;;;;;;;;;563.60;2432.00;;;;;;5092083;28;20015;-63
2022/10/14 08:37:20;;;;;;;;;;;538.00;2406.40;;;;;;5091884;28;19912;-61
2022/10/14 08:39:46;;;;;;;;;;;563.20;2432.00;;;;;;5091190;28;20023;-63
2022/10/14 08:42:30;;;;;;;;;;;563.40;2432.00;;;;;;5090091;28;19932;-64
2022/10/14 08:45:01;;;;;;;;;;;563.20;2432.00;;;;;;5090925;28;19916;-63
2022/10/14 08:47:33;;;;;;;;;;;563.60;2432.00;;;;;;5089856;28;19919;-62
2022/10/14 08:50:05;;;;;;;;;;;512.80;2380.80;;;;;;5091480;28;19943;-63
2022/10/14 08:52:44;;;;;;;;;;;512.60;2380.80;;;;;;5091436;28;20286;-61
2022/10/14 08:55:18;;;;;;;;;;;512.10;2380.80;;;;;;5092040;28;19908;-62
2022/10/14 08:57:48;;;;;;;;;;;487.10;2380.80;;;;;;5091939;28;19999;-64
2022/10/14 09:00:14;;;;;;;;;;;487.00;2380.80;;;;;;5091614;28;19936;-62
2022/10/14 09:02:47;;;;;;;;;;;486.80;2380.80;;;;;;5091899;28;19919;-62
2022/10/14 09:05:30;;;;;;;;;;;487.20;2380.80;;;;;;5091603;28;19923;-62
2022/10/14 09:07:57;;;;;;;;;;;487.00;2380.80;;;;;;5091346;28;19920;-62
2022/10/14 09:10:22;;;;;;;;;;;486.80;2380.80;;;;;;5091585;28;19912;-62
2022/10/14 09:12:49;;;;;;;;;;;486.90;2380.80;;;;;;5091731;28;20327;-63
2022/10/14 09:15:17;;;;;;;;;;;487.00;2380.80;;;;;;5091539;28;19908;-62
2022/10/14 09:18:03;;;;;;;;;;;512.30;2380.80;;;;;;5091384;28;19908;-62
2022/10/14 09:20:29;;;;;;;;;;;487.20;2380.80;;;;;;5090964;28;19920;-62
2022/10/14 09:22:55;;;;;;;;;;;537.80;2406.40;;;;;;5091225;28;19916;-62
2022/10/14 09:25:20;;;;;;;;;;;538.50;2406.40;;;;;;5091516;28;19914;-62
2022/10/14 09:27:46;;;;;;;;;;;538.50;2380.80;;;;;;5091292;28;19912;-63
2022/10/14 09:30:13;;;;;;;;;;;538.00;2380.80;;;;;;5091460;28;19908;-61
2022/10/14 09:32:59;;;;;;;;;;;512.80;2380.80;;;;;;5091406;28;19954;-62
2022/10/14 09:35:29;;;;;;;;;;;537.80;2406.40;;;;;;5090769;28;19920;-62
2022/10/14 09:37:54;;;;;;;;;;;512.40;2380.80;;;;;;5090941;28;19943;-62
2022/10/14 09:40:31;;;;;;;;;;;512.60;2380.80;;;;;;5090699;28;19951;-63
2022/10/14 09:42:59;;;;;;;;;;;512.40;2380.80;;;;;;5090555;28;20365;-62
2022/10/14 09:45:26;;;;;;;;;;;512.70;2380.80;;;;;;5090919;28;20278;-63
2022/10/14 09:48:02;;;;;;;;;;;537.80;2406.40;;;;;;5091143;28;20316;-62
2022/10/14 09:50:39;;;;;;;;;;;512.90;2380.80;;;;;;5091113;28;19908;-62
2022/10/14 09:53:34;;;;;;;;;;;512.90;2380.80;;;;;;5090542;28;19908;-62
2022/10/14 09:56:01;;;;;;;;;;;537.70;2406.40;;;;;;5048464;28;19956;-62
2022/10/14 09:58:42;;;;;;;;;;;538.50;2406.40;;;;;;5048356;28;20000;-62
2022/10/14 10:01:13;;;;;;;;;;;563.30;2406.40;;;;;;5048361;28;19913;-62
2022/10/14 10:03:39;;;;;;;;;;;563.40;2380.80;;;;;;5048544;28;20015;-62
2022/10/14 10:06:09;;;;;;;;;;;563.20;2380.80;;;;;;5048064;28;19967;-64
2022/10/14 10:08:36;;;;;;;;;;;563.50;2329.60;;;;;;5048053;28;20338;-62
2022/10/14 10:11:04;;;;;;;;;;;563.40;2406.40;;;;;;5048284;28;19909;-62
2022/10/14 10:13:33;;;;;;;;;;;512.90;2380.80;;;;;;5048297;28;19909;-62
2022/10/14 10:16:00;;;;;;;;;;;537.80;2406.40;;;;;;5048427;28;19909;-62
2022/10/14 10:18:26;;;;;;;;;;;538.00;2406.40;;;;;;5048049;28;20485;-62
2022/10/14 10:21:14;;;;;;;;;;;512.80;2380.80;;;;;;5048107;28;20032;-65
2022/10/14 10:23:49;;;;;;;;;;;512.40;2380.80;;;;;;5048329;28;19909;-62
2022/10/14 10:26:24;;;;;;;;;;;512.50;2380.80;;;;;;5048059;28;19963;-62
2022/10/14 10:28:50;;;;;;;;;;;512.90;2380.80;;;;;;5048106;28;19908;-62
2022/10/14 10:31:42;;;;;;;;;;;537.90;2406.40;;;;;;5049723;28;20274;-61
2022/10/14 10:34:26;;;;;;;;;;;538.00;2304.00;;;;;;5090566;28;19958;-62
2022/10/14 10:36:56;;;;;;;;;;;538.30;2278.40;;;;;;5090443;28;20429;-63
2022/10/14 10:39:27;;;;;;;;;;;538.00;2329.60;;;;;;5090474;28;19915;-63
2022/10/14 10:42:00;;;;;;;;;;;538.00;2329.60;;;;;;5090129;28;19916;-62
2022/10/14 10:44:31;;;;;;;;;;;512.90;2329.60;;;;;;5090219;28;19995;-62
2022/10/14 10:46:59;;;;;;;;;;;537.60;2304.00;;;;;;5090118;28;20373;-62
2022/10/14 10:49:49;;;;;;;;;;;512.90;2329.60;;;;;;5090164;28;20018;-62
2022/10/14 10:52:21;;;;;;;;;;;538.10;2329.60;;;;;;5090960;28;19908;-62
2022/10/14 10:54:53;;;;;;;;;;;538.10;2304.00;;;;;;5094145;28;19915;-62
2022/10/14 10:57:18;;;;;;;;;;;538.20;2201.60;;;;;;5094283;28;19999;-62
2022/10/14 10:59:55;;;;;;;;;;;538.10;2227.20;;;;;;5094130;28;19997;-62
2022/10/14 11:02:32;;;;;;;;;;;538.00;2201.60;;;;;;5094132;28;20320;-62
2022/10/14 11:05:03;;;;;;;;;;;538.00;2176.00;;;;;;5093555;28;19912;-62
2022/10/14 11:13:33;;;;;;;;;;;538.30;2048.00;;;;;;5093748;28;20349;-62
2022/10/14 11:16:09;;;;;;;;;;;538.10;2048.00;;;;;;5093946;28;19915;-62
2022/10/14 11:18:46;;;;;;;;;;;538.30;2048.00;;;;;;5093737;28;20375;-62
2022/10/14 11:21:21;;;;;;;;;;;563.20;2073.60;;;;;;5093909;28;19923;-62
2022/10/14 11:24:15;;;;;;;;;;;538.20;2022.40;;;;;;5092932;28;19916;-64
2022/10/14 11:26:50;;;;;;;;;;;538.40;1996.80;;;;;;5071506;28;20436;-63
2022/10/14 11:29:26;;;;;;;;;;;538.40;1996.80;;;;;;5070844;28;19919;-62
2022/10/14 11:31:57;;;;;;;;;;;538.20;1971.20;;;;;;5071187;28;19951;-62
2022/10/14 11:34:29;;;;;;;;;;;538.40;1996.80;;;;;;5070722;28;19912;-63
2022/10/14 11:37:21;;;;;;;;;;;538.20;1971.20;;;;;;5070796;28;19920;-63
2022/10/14 11:39:49;;;;;;;;;;;538.30;1996.80;;;;;;5067533;28;19962;-63
2022/10/14 11:42:17;;;;;;;;;;;538.30;1971.20;;;;;;5070850;28;19917;-62
2022/10/14 11:44:43;;;;;;;;;;;538.50;1894.40;;;;;;5070692;28;19908;-62
2022/10/14 11:47:18;;;;;;;;;;;563.20;1920.00;;;;;;5071198;28;20399;-62
2022/10/14 11:49:54;;;;;;;;;;;563.60;1920.00;;;;;;5070719;28;19908;-63
2022/10/14 11:52:31;;;;;;;;;;;563.20;1920.00;;;;;;5070837;28;19999;-61
2022/10/14 11:54:57;;;;;;;;;;;563.40;1920.00;;;;;;5070500;28;19991;-62
2022/10/14 11:57:22;;;;;;;;;;;563.70;1894.40;;;;;;5070876;28;20067;-63
2022/10/14 12:00:10;;;;;;;;;;;564.00;1894.40;;;;;;5070932;28;19948;-62
2022/10/14 12:02:42;;;;;;;;;;;564.00;1894.40;;;;;;5071050;28;19921;-63
2022/10/14 12:05:21;;;;;;;;;;;588.90;1894.40;;;;;;5072031;28;19923;-62
2022/10/14 12:07:54;;;;;;;;;;;564.10;1894.40;;;;;;5072210;28;19919;-63
2022/10/14 12:10:26;;;;;;;;;;;564.10;1894.40;;;;;;5072909;28;19951;-62
2022/10/14 12:12:53;;;;;;;;;;;563.90;1920.00;;;;;;5072598;28;19915;-62
2022/10/14 12:15:20;;;;;;;;;;;563.80;1945.60;;;;;;5072663;28;20281;-62
2022/10/14 12:17:51;;;;;;;;;;;563.20;1945.60;;;;;;5072400;28;19916;-63
2022/10/14 12:20:16;;;;;;;;;;;563.30;1945.60;;;;;;5072149;28;19913;-62
2022/10/14 12:22:42;;;;;;;;;;;563.20;1945.60;;;;;;5072436;28;19917;-63
2022/10/14 12:25:13;;;;;;;;;;;538.40;1971.20;;;;;;5072466;28;19908;-63
2022/10/14 12:27:39;;;;;;;;;;;538.10;1945.60;;;;;;5072708;28;19909;-62
2022/10/14 12:30:25;;;;;;;;;;;538.00;1920.00;;;;;;5072125;28;20366;-62
2022/10/14 12:33:01;;;;;;;;;;;537.80;1945.60;;;;;;5071964;28;19912;-63
2022/10/14 12:35:45;;;;;;;;;;;537.60;1945.60;;;;;;5072187;28;19916;-63
2022/10/14 12:38:11;;;;;;;;;;;537.80;1971.20;;;;;;5072212;28;19909;-60
2022/10/14 12:40:38;;;;;;;;;;;512.90;1843.20;;;;;;5071877;28;19920;-64
2022/10/14 12:43:12;;;;;;;;;;;512.80;1817.60;;;;;;5071800;28;20414;-62
2022/10/14 12:45:45;;;;;;;;;;;512.90;1843.20;;;;;;5072032;28;19909;-63
2022/10/14 12:48:22;;;;;;;;;;;512.90;1817.60;;;;;;5070924;28;19909;-62
2022/10/14 12:50:50;;;;;;;;;;;512.70;1817.60;;;;;;5071899;28;19915;-62
2022/10/14 12:53:21;;;;;;;;;;;512.80;1843.20;;;;;;5071638;28;19912;-62
2022/10/14 12:55:54;;;;;;;;;;;512.80;1817.60;;;;;;5071624;28;19912;-61
2022/10/14 12:58:43;;;;;;;;;;;512.70;1792.00;;;;;;5071745;28;19908;-63
2022/10/14 13:01:20;;;;;;;;;;;512.60;1792.00;;;;;;5029644;28;19917;-62
2022/10/14 13:04:06;;;;;;;;;;;512.80;1817.60;;;;;;5029281;28;19909;-63
2022/10/14 13:06:36;;;;;;;;;;;512.90;1817.60;;;;;;5029133;28;19954;-62
2022/10/14 13:09:10;;;;;;;;;;;512.70;1817.60;;;;;;5029335;28;19925;-62
2022/10/14 13:11:37;;;;;;;;;;;512.90;1817.60;;;;;;5029326;28;19949;-62
2022/10/14 13:14:41;;;;;;;;;;;512.90;1817.60;;;;;;5029212;28;19913;-62
2022/10/14 13:17:43;;;;;;;;;;;512.90;1817.60;;;;;;4970307;28;19917;-62
2022/10/14 13:20:27;;;;;;;;;;;537.70;1817.60;;;;;;4894453;29;19916;-62
2022/10/14 13:22:53;;;;;;;;;;;537.90;1817.60;;;;;;4893920;29;19955;-63
2022/10/14 13:25:19;;;;;;;;;;;538.10;1792.00;;;;;;4894084;29;19966;-62
2022/10/14 13:27:45;;;;;;;;;;;538.20;1792.00;;;;;;4893842;29;19918;-64
2022/10/14 13:30:10;;;;;;;;;;;538.10;1792.00;;;;;;4894250;29;19975;-62
2022/10/14 13:32:44;;;;;;;;;;;537.90;1792.00;;;;;;4893834;29;19915;-62
2022/10/14 13:35:19;;;;;;;;;;;537.60;1843.20;;;;;;4894116;29;20019;-61
2022/10/14 13:37:53;;;;;;;;;;;537.60;1843.20;;;;;;4899876;29;19911;-63
2022/10/14 13:40:18;;;;;;;;;;;537.70;1843.20;;;;;;4912843;29;20298;-62
2022/10/14 13:42:45;;;;;;;;;;;537.80;1817.60;;;;;;4912447;29;19925;-62
2022/10/14 13:45:12;;;;;;;;;;;512.90;1792.00;;;;;;4912845;29;19911;-62
2022/10/14 13:47:42;;;;;;;;;;;512.80;1817.60;;;;;;4943985;28;19937;-62
2022/10/14 13:50:09;;;;;;;;;;;512.80;1817.60;;;;;;4989253;28;20398;-62
2022/10/14 13:52:35;;;;;;;;;;;512.70;1843.20;;;;;;4989179;28;19917;-62
2022/10/14 13:55:20;;;;;;;;;;;512.80;1843.20;;;;;;5060630;28;19908;-62
2022/10/14 13:58:05;;;;;;;;;;;512.90;1817.60;;;;;;5070543;28;19999;-62
2022/10/14 14:00:32;;;;;;;;;;;537.60;1843.20;;;;;;5070697;28;20022;-62